Terminal Aerodrome Forecast
Issued by NWS Dallas/Fort Worth, TX

Home | Current Version | Previous Version | Text Only | Print | Product List | Glossary On
Versions: 1 2 3 4 5 6 7 8 9 10 11 12 13 14 15 16 17 18 19 20 21 22 23 24 25 26 27 28
000
FTUS44 KFWD 241733
TAFACT
TAF
KACT 241733Z 2418/2518 01010KT P6SM VCSH SCT008 BKN012
     FM242100 02009KT P6SM SCT025 BKN035
     FM250800 06005KT P6SM VCSH OVC015
     FM251600 06008KT P6SM BKN030=

USA.gov is the U.S. government's official web portal to all federal, state and local government web resources and services.